Time;durP1;ratioP1;P1;durP2;ratioP2;P2;SDS_P1;SDS_P2;PMS_P1;PMS_P2;Temp;Humidity;BMP_temperature;BMP_pressure;BME280_temperature;BME280_humidity;BME280_pressure;Samples;Min_cycle;Max_cycle;Signal;HPM_P1;HPM_P2
2023/05/07 00:00:06;;;;;;;0.55;0.40;;;16.70;99.90;;;;;;5030729;28;20205;-65
2023/05/07 00:02:34;;;;;;;0.50;0.30;;;16.60;99.90;;;;;;5031645;28;20227;-65
2023/05/07 00:05:03;;;;;;;0.60;0.40;;;16.50;99.90;;;;;;5032107;28;20579;-66
2023/05/07 00:07:31;;;;;;;0.50;0.38;;;16.40;99.90;;;;;;5041802;28;20209;-65
2023/05/07 00:09:59;;;;;;;0.70;0.40;;;16.30;99.90;;;;;;5036592;28;20304;-65
2023/05/07 00:12:31;;;;;;;0.50;0.40;;;16.20;99.90;;;;;;5035512;28;20201;-65
2023/05/07 00:15:00;;;;;;;0.60;0.40;;;16.10;99.90;;;;;;5028926;28;22054;-65
2023/05/07 00:17:28;;;;;;;0.60;0.40;;;16.10;99.90;;;;;;5031488;28;20219;-65
2023/05/07 00:19:56;;;;;;;0.90;0.70;;;16.10;99.90;;;;;;5032869;28;20205;-65
2023/05/07 00:22:24;;;;;;;0.50;0.38;;;16.10;99.90;;;;;;5043170;28;20196;-65
2023/05/07 00:24:51;;;;;;;0.50;0.30;;;16.00;99.90;;;;;;5032753;28;20193;-64
2023/05/07 00:27:19;;;;;;;0.60;0.40;;;16.00;99.90;;;;;;5029087;28;20270;-65
2023/05/07 00:29:47;;;;;;;0.50;0.40;;;16.20;99.90;;;;;;5028740;28;20209;-65
2023/05/07 00:32:16;;;;;;;0.50;0.40;;;16.20;99.90;;;;;;5029886;28;20201;-66
2023/05/07 00:34:44;;;;;;;1.50;1.10;;;16.20;99.90;;;;;;5029225;28;20243;-65
2023/05/07 00:37:12;;;;;;;0.50;0.40;;;16.20;99.90;;;;;;5151985;22;20235;-68
2023/05/07 00:39:40;;;;;;;0.60;0.50;;;16.30;99.90;;;;;;5052292;28;20299;-68
2023/05/07 00:42:08;;;;;;;0.60;0.40;;;16.30;99.90;;;;;;5052880;28;20283;-68
2023/05/07 00:44:36;;;;;;;0.60;0.50;;;16.20;99.90;;;;;;5051938;28;20311;-68
2023/05/07 00:47:05;;;;;;;0.60;0.50;;;16.20;99.90;;;;;;5053694;28;20224;-68
2023/05/07 00:49:39;;;;;;;0.93;0.82;;;16.20;99.90;;;;;;5053090;28;20238;-68
2023/05/07 00:52:08;;;;;;;0.60;0.40;;;16.20;99.90;;;;;;5044441;28;20207;-68
2023/05/07 00:54:36;;;;;;;0.70;0.40;;;16.20;99.90;;;;;;5053034;28;20291;-68
2023/05/07 00:57:04;;;;;;;0.50;0.40;;;16.10;99.90;;;;;;5052157;28;20295;-68
2023/05/07 00:59:33;;;;;;;0.60;0.50;;;16.20;99.90;;;;;;5051274;28;20695;-68
2023/05/07 01:02:01;;;;;;;0.80;0.63;;;16.20;99.90;;;;;;5052589;28;20658;-69
2023/05/07 01:04:29;;;;;;;0.82;0.82;;;16.20;99.90;;;;;;5052782;28;20256;-68
2023/05/07 01:07:00;;;;;;;1.48;0.52;;;16.30;99.90;;;;;;5052642;28;20231;-68
2023/05/07 01:09:29;;;;;;;0.50;0.40;;;16.30;99.90;;;;;;5052100;28;20204;-68
2023/05/07 01:11:58;;;;;;;0.50;0.30;;;16.40;99.90;;;;;;5052116;28;20231;-68
2023/05/07 01:14:26;;;;;;;0.57;0.45;;;16.40;99.90;;;;;;5052531;28;20227;-68
2023/05/07 01:16:54;;;;;;;0.50;0.30;;;16.40;99.90;;;;;;5052307;28;20280;-68
2023/05/07 01:19:23;;;;;;;0.70;0.40;;;16.40;99.90;;;;;;5045159;28;20214;-68
2023/05/07 01:21:52;;;;;;;0.68;0.40;;;16.40;99.90;;;;;;5052247;28;20224;-68
2023/05/07 01:24:22;;;;;;;0.80;0.73;;;16.50;99.90;;;;;;5044889;28;20228;-68
2023/05/07 01:26:50;;;;;;;0.60;0.50;;;16.40;99.90;;;;;;5052552;28;20641;-68
2023/05/07 01:29:17;;;;;;;0.55;0.40;;;16.40;99.90;;;;;;5053162;28;20283;-68
2023/05/07 01:31:46;;;;;;;0.60;0.40;;;16.50;99.90;;;;;;5052163;28;20203;-68
2023/05/07 01:34:18;;;;;;;0.60;0.43;;;16.60;99.90;;;;;;5052348;28;20635;-68
2023/05/07 01:36:47;;;;;;;0.50;0.40;;;16.50;99.90;;;;;;5052158;28;20679;-67
2023/05/07 01:39:17;;;;;;;0.93;0.47;;;16.50;99.90;;;;;;5051694;28;20197;-68
2023/05/07 01:41:46;;;;;;;0.70;0.60;;;16.40;99.90;;;;;;5051598;28;20212;-68
2023/05/07 01:44:16;;;;;;;0.60;0.40;;;16.30;99.90;;;;;;5040278;28;20224;-69
2023/05/07 01:46:44;;;;;;;0.50;0.40;;;16.40;99.90;;;;;;5047440;28;20259;-69
2023/05/07 01:49:12;;;;;;;0.70;0.50;;;16.30;99.90;;;;;;5053862;28;20212;-69
2023/05/07 01:51:40;;;;;;;0.50;0.30;;;16.30;99.90;;;;;;5043217;28;20236;-71
2023/05/07 01:54:08;;;;;;;0.60;0.40;;;16.20;99.90;;;;;;5049225;28;20228;-69
2023/05/07 01:56:36;;;;;;;0.50;0.30;;;16.20;99.90;;;;;;5040381;28;20709;-69
2023/05/07 01:59:05;;;;;;;0.60;0.40;;;16.10;99.90;;;;;;5048079;28;20303;-69
2023/05/07 02:01:33;;;;;;;0.50;0.35;;;16.00;99.90;;;;;;5046559;28;20662;-69
2023/05/07 02:04:01;;;;;;;0.60;0.50;;;16.00;99.90;;;;;;5046193;28;20215;-69
2023/05/07 02:06:30;;;;;;;0.50;0.30;;;16.00;99.90;;;;;;5045947;28;20246;-69
2023/05/07 02:08:58;;;;;;;0.70;0.40;;;15.90;99.90;;;;;;5048282;28;20235;-69
2023/05/07 02:11:26;;;;;;;0.60;0.40;;;16.00;99.90;;;;;;5047266;28;20220;-69
2023/05/07 02:13:54;;;;;;;1.10;0.70;;;16.00;99.90;;;;;;5048463;28;21274;-69
2023/05/07 02:16:24;;;;;;;0.50;0.40;;;16.00;99.90;;;;;;5040757;28;20722;-69
2023/05/07 02:18:51;;;;;;;0.88;0.77;;;16.00;99.90;;;;;;5046646;28;20199;-68
2023/05/07 02:21:19;;;;;;;0.50;0.38;;;16.00;99.90;;;;;;5046220;28;20637;-68
2023/05/07 02:23:47;;;;;;;0.60;0.40;;;16.10;99.90;;;;;;5047651;28;20347;-68
2023/05/07 02:26:15;;;;;;;0.70;0.50;;;16.10;99.90;;;;;;5045814;28;20718;-67
2023/05/07 02:28:43;;;;;;;0.60;0.45;;;16.20;99.90;;;;;;5047943;28;20238;-68
2023/05/07 02:31:11;;;;;;;0.55;0.40;;;16.20;99.90;;;;;;5042014;28;20199;-68
2023/05/07 02:33:40;;;;;;;0.60;0.40;;;16.30;99.90;;;;;;5049024;28;20283;-68
2023/05/07 02:36:09;;;;;;;0.60;0.50;;;16.30;99.90;;;;;;5046418;28;20235;-68
2023/05/07 02:38:37;;;;;;;0.50;0.30;;;16.30;99.90;;;;;;5046983;28;20219;-68
2023/05/07 02:41:05;;;;;;;0.88;0.73;;;16.30;99.90;;;;;;5048347;28;20630;-68
2023/05/07 02:43:33;;;;;;;0.50;0.40;;;16.40;99.90;;;;;;5046437;28;20291;-69
2023/05/07 02:46:03;;;;;;;0.60;0.40;;;16.40;99.90;;;;;;5048714;28;20228;-68
2023/05/07 02:48:30;;;;;;;0.50;0.30;;;16.40;99.90;;;;;;5048682;28;20207;-69
2023/05/07 02:51:00;;;;;;;0.60;0.50;;;16.50;99.90;;;;;;5045594;28;20221;-69
2023/05/07 02:53:29;;;;;;;0.50;0.40;;;16.50;99.90;;;;;;5047067;28;20616;-69
2023/05/07 02:55:58;;;;;;;0.60;0.40;;;16.50;99.90;;;;;;5047267;28;20220;-69
2023/05/07 02:58:26;;;;;;;0.50;0.40;;;16.40;99.90;;;;;;5049914;28;20257;-69
2023/05/07 03:00:55;;;;;;;0.50;0.40;;;16.30;99.90;;;;;;5050687;28;20243;-69
2023/05/07 03:03:23;;;;;;;0.70;0.47;;;16.30;99.90;;;;;;5042506;28;20226;-69
2023/05/07 03:05:51;;;;;;;0.60;0.50;;;16.20;99.90;;;;;;5049140;28;20322;-68
2023/05/07 03:08:20;;;;;;;0.50;0.40;;;16.20;99.90;;;;;;5045780;28;20208;-68
2023/05/07 03:10:48;;;;;;;0.50;0.40;;;16.20;99.90;;;;;;5040517;28;20294;-68
2023/05/07 03:13:16;;;;;;;0.60;0.50;;;16.10;99.90;;;;;;5041703;28;20733;-69
2023/05/07 03:15:45;;;;;;;0.50;0.40;;;16.00;99.90;;;;;;5042594;28;20200;-68
2023/05/07 03:18:13;;;;;;;0.60;0.40;;;16.00;99.90;;;;;;5054835;28;20257;-69
2023/05/07 03:20:41;;;;;;;1.17;0.50;;;16.00;99.90;;;;;;5050880;28;20215;-68
2023/05/07 03:23:09;;;;;;;0.50;0.40;;;16.00;99.90;;;;;;5039176;28;20643;-68
2023/05/07 03:25:38;;;;;;;0.80;0.50;;;16.10;99.90;;;;;;5039859;28;20243;-68
2023/05/07 03:28:06;;;;;;;0.50;0.40;;;16.00;99.90;;;;;;5046092;28;20670;-68
2023/05/07 03:30:34;;;;;;;0.70;0.45;;;16.00;99.90;;;;;;5046346;28;20291;-68
2023/05/07 03:33:02;;;;;;;0.70;0.50;;;16.00;99.90;;;;;;5048462;28;20643;-67
2023/05/07 03:35:30;;;;;;;0.50;0.40;;;15.90;99.90;;;;;;5038210;28;20284;-67
2023/05/07 03:37:58;;;;;;;0.80;0.40;;;15.80;99.90;;;;;;5047630;28;20242;-67
2023/05/07 03:40:25;;;;;;;0.50;0.40;;;15.70;99.90;;;;;;5046783;28;20231;-67
2023/05/07 03:42:55;;;;;;;0.50;0.40;;;15.60;99.90;;;;;;5054220;28;20232;-68
2023/05/07 03:45:23;;;;;;;0.75;0.75;;;15.60;99.90;;;;;;5054141;28;20559;-67
2023/05/07 03:47:50;;;;;;;0.60;0.40;;;15.60;99.90;;;;;;5053355;28;20293;-67
2023/05/07 03:50:18;;;;;;;1.02;0.60;;;15.50;99.90;;;;;;5049187;28;20291;-67
2023/05/07 03:52:46;;;;;;;0.50;0.40;;;15.60;99.90;;;;;;5044475;28;20223;-70
2023/05/07 03:55:14;;;;;;;0.60;0.50;;;15.60;99.90;;;;;;5037559;28;20228;-70
2023/05/07 03:57:42;;;;;;;0.50;0.40;;;15.60;99.90;;;;;;5047039;28;20227;-69
2023/05/07 04:00:13;;;;;;;0.50;0.40;;;15.60;99.90;;;;;;5045998;28;20569;-69
2023/05/07 04:02:41;;;;;;;0.82;0.82;;;15.60;99.90;;;;;;5049586;28;20235;-72
2023/05/07 04:05:09;;;;;;;0.70;0.50;;;15.70;99.90;;;;;;5049623;28;20212;-70
2023/05/07 04:07:37;;;;;;;0.60;0.60;;;15.70;99.90;;;;;;5045653;28;20259;-69
2023/05/07 04:10:06;;;;;;;0.50;0.40;;;15.70;99.90;;;;;;5049924;28;20216;-70
2023/05/07 04:12:34;;;;;;;0.57;0.38;;;15.70;99.90;;;;;;5044582;28;20265;-69
2023/05/07 04:15:02;;;;;;;0.60;0.40;;;15.80;99.90;;;;;;5048690;28;20209;-70
2023/05/07 04:17:31;;;;;;;0.80;0.60;;;15.90;99.90;;;;;;5050302;28;20286;-69
2023/05/07 04:19:59;;;;;;;0.50;0.40;;;15.90;99.90;;;;;;5045222;28;20295;-69
2023/05/07 04:22:27;;;;;;;0.60;0.40;;;15.90;99.90;;;;;;5046209;28;20258;-70
2023/05/07 04:24:56;;;;;;;0.70;0.65;;;15.90;99.90;;;;;;5047483;28;20261;-69
2023/05/07 04:27:24;;;;;;;0.50;0.38;;;15.90;99.90;;;;;;5045391;28;20228;-68
2023/05/07 04:29:55;;;;;;;0.60;0.47;;;15.90;99.90;;;;;;5047620;28;20208;-69
2023/05/07 04:32:24;;;;;;;0.60;0.40;;;15.90;99.90;;;;;;5046316;28;20234;-69
2023/05/07 04:34:54;;;;;;;0.75;0.60;;;16.00;99.90;;;;;;5046982;28;20234;-69
2023/05/07 04:37:21;;;;;;;0.52;0.40;;;16.00;99.90;;;;;;5049823;28;20706;-69
2023/05/07 04:39:49;;;;;;;0.80;0.50;;;16.10;99.90;;;;;;5042524;28;20631;-70
2023/05/07 04:42:17;;;;;;;0.60;0.40;;;16.10;99.90;;;;;;5047670;28;20208;-69
2023/05/07 04:44:46;;;;;;;0.60;0.40;;;16.00;99.90;;;;;;5044509;28;20196;-68
2023/05/07 04:47:14;;;;;;;0.60;0.50;;;15.90;99.90;;;;;;5050310;28;20352;-69
2023/05/07 04:49:42;;;;;;;0.50;0.40;;;15.80;99.90;;;;;;5049006;28;20254;-69
2023/05/07 04:52:11;;;;;;;0.60;0.55;;;15.80;99.90;;;;;;5044565;28;20204;-68
2023/05/07 04:54:39;;;;;;;0.70;0.50;;;15.70;99.90;;;;;;5049811;28;20638;-69
2023/05/07 04:57:07;;;;;;;0.50;0.30;;;15.70;99.90;;;;;;5042128;28;20650;-68
2023/05/07 04:59:35;;;;;;;1.65;0.63;;;15.80;99.90;;;;;;5048284;28;20295;-68
2023/05/07 05:02:03;;;;;;;0.50;0.40;;;15.90;99.90;;;;;;5050087;28;20242;-68
2023/05/07 05:04:31;;;;;;;1.50;0.60;;;15.80;99.90;;;;;;5043987;28;20262;-70
2023/05/07 05:06:59;;;;;;;0.70;0.55;;;15.80;99.90;;;;;;5042742;28;20306;-71
2023/05/07 05:09:28;;;;;;;0.63;0.50;;;15.80;99.90;;;;;;5043301;28;20263;-69
2023/05/07 05:11:56;;;;;;;0.50;0.40;;;15.80;99.90;;;;;;5039403;28;20291;-69
2023/05/07 05:14:24;;;;;;;0.50;0.40;;;15.80;99.90;;;;;;5045805;28;20236;-68
2023/05/07 05:16:52;;;;;;;0.50;0.40;;;15.80;99.90;;;;;;5050140;28;20251;-68
2023/05/07 05:19:20;;;;;;;0.50;0.40;;;15.80;99.90;;;;;;5045097;28;20286;-68
2023/05/07 05:21:48;;;;;;;0.60;0.40;;;15.90;99.90;;;;;;5062268;28;20238;-68
2023/05/07 05:24:16;;;;;;;0.60;0.50;;;15.90;99.90;;;;;;5046065;28;20201;-69
2023/05/07 05:26:45;;;;;;;0.70;0.60;;;15.90;99.90;;;;;;5048473;28;20232;-68
2023/05/07 05:29:13;;;;;;;0.60;0.40;;;15.90;99.90;;;;;;5048439;28;20200;-69
2023/05/07 05:31:41;;;;;;;0.55;0.40;;;15.90;99.90;;;;;;5038979;28;20209;-69
2023/05/07 05:34:09;;;;;;;1.55;0.70;;;15.90;99.90;;;;;;5049094;28;20658;-68
2023/05/07 05:36:37;;;;;;;0.60;0.40;;;15.90;99.90;;;;;;5049652;28;20264;-68
2023/05/07 05:39:05;;;;;;;0.60;0.45;;;16.00;99.90;;;;;;5043262;28;20217;-69
2023/05/07 05:41:33;;;;;;;0.80;0.45;;;16.00;99.90;;;;;;5045846;28;20243;-68
2023/05/07 05:44:02;;;;;;;0.57;0.45;;;16.00;99.90;;;;;;5047622;28;20287;-68
2023/05/07 05:46:31;;;;;;;0.50;0.40;;;16.10;99.90;;;;;;5040959;28;20657;-69
2023/05/07 05:49:00;;;;;;;0.70;0.40;;;16.10;99.90;;;;;;5048779;28;20216;-68
2023/05/07 05:51:28;;;;;;;0.50;0.40;;;16.20;99.90;;;;;;5050125;28;20709;-68
2023/05/07 05:53:56;;;;;;;0.60;0.50;;;16.20;99.90;;;;;;5047396;28;20285;-68
2023/05/07 05:56:24;;;;;;;0.60;0.45;;;16.20;99.90;;;;;;5045001;28;20259;-68
2023/05/07 05:58:52;;;;;;;0.50;0.40;;;16.30;99.90;;;;;;5049324;28;20733;-68
2023/05/07 06:01:21;;;;;;;0.68;0.50;;;16.30;99.90;;;;;;5049916;28;20210;-69
2023/05/07 06:03:49;;;;;;;1.60;0.70;;;16.30;99.90;;;;;;5044727;28;20315;-68
2023/05/07 06:06:17;;;;;;;0.80;0.40;;;16.40;99.90;;;;;;5042126;28;20216;-68
2023/05/07 06:08:45;;;;;;;0.60;0.40;;;16.50;99.90;;;;;;5040781;28;20292;-69
2023/05/07 06:11:13;;;;;;;0.60;0.47;;;16.60;99.90;;;;;;5043992;28;20649;-68
2023/05/07 06:13:41;;;;;;;0.60;0.50;;;16.50;99.90;;;;;;5042901;28;20238;-68
2023/05/07 06:16:09;;;;;;;0.50;0.40;;;16.60;99.90;;;;;;5044390;28;20224;-66
2023/05/07 06:18:38;;;;;;;0.60;0.50;;;16.60;99.90;;;;;;5042321;28;20208;-69
2023/05/07 06:21:06;;;;;;;0.63;0.50;;;16.70;99.90;;;;;;5043240;28;20204;-69
2023/05/07 06:23:34;;;;;;;0.60;0.50;;;16.70;99.90;;;;;;5045650;28;20242;-69
2023/05/07 06:26:03;;;;;;;0.60;0.60;;;16.70;99.90;;;;;;5041524;28;20817;-68
2023/05/07 06:28:35;;;;;;;0.70;0.52;;;16.70;99.90;;;;;;5041985;28;20204;-68
2023/05/07 06:31:13;;;;;;;0.60;0.50;;;16.80;99.90;;;;;;5044271;28;20196;-69
2023/05/07 06:33:43;;;;;;;0.70;0.50;;;16.80;99.90;;;;;;5044545;28;20234;-68
2023/05/07 06:36:11;;;;;;;0.90;0.60;;;16.90;99.90;;;;;;5050369;28;20251;-69
2023/05/07 06:38:39;;;;;;;0.60;0.50;;;16.90;99.90;;;;;;5045700;28;20240;-69
2023/05/07 06:41:07;;;;;;;0.70;0.70;;;17.00;99.90;;;;;;5045166;28;20214;-68
2023/05/07 06:43:36;;;;;;;0.60;0.50;;;17.00;99.90;;;;;;5046957;28;20292;-68
2023/05/07 06:46:05;;;;;;;0.82;0.65;;;17.20;99.90;;;;;;5042016;28;20252;-68
2023/05/07 06:48:32;;;;;;;0.60;0.50;;;17.30;99.90;;;;;;5048714;28;20262;-68
2023/05/07 06:51:02;;;;;;;0.70;0.65;;;17.50;99.90;;;;;;5052960;28;20286;-67
2023/05/07 06:53:30;;;;;;;0.60;0.40;;;17.60;99.90;;;;;;5044774;28;21158;-68
2023/05/07 06:55:58;;;;;;;0.60;0.50;;;17.70;99.90;;;;;;5043120;28;20267;-68
2023/05/07 06:58:26;;;;;;;0.70;0.40;;;17.70;99.90;;;;;;5046730;28;20207;-68
2023/05/07 07:00:54;;;;;;;0.60;0.43;;;17.70;99.90;;;;;;5046283;28;20647;-68
2023/05/07 07:03:21;;;;;;;0.60;0.60;;;17.80;99.90;;;;;;5043395;28;20215;-69
2023/05/07 07:05:53;;;;;;;0.60;0.50;;;17.90;99.90;;;;;;5049578;28;20242;-70
2023/05/07 07:08:23;;;;;;;0.70;0.57;;;18.00;99.90;;;;;;5042777;28;20269;-69
2023/05/07 07:10:51;;;;;;;0.50;0.40;;;18.10;99.90;;;;;;5042888;28;20209;-70
2023/05/07 07:13:19;;;;;;;0.57;0.40;;;18.10;99.90;;;;;;5049670;28;20755;-70
2023/05/07 07:15:47;;;;;;;0.70;0.50;;;18.20;99.90;;;;;;5050717;28;20216;-70
2023/05/07 07:18:15;;;;;;;0.60;0.50;;;18.10;99.90;;;;;;5050431;28;20199;-70
2023/05/07 07:20:44;;;;;;;0.50;0.40;;;18.20;99.90;;;;;;5054264;28;20242;-70
2023/05/07 07:23:12;;;;;;;0.60;0.50;;;18.10;99.90;;;;;;5050303;28;20578;-70
2023/05/07 07:25:41;;;;;;;0.60;0.60;;;17.90;99.90;;;;;;5050686;28;20207;-71
2023/05/07 07:28:10;;;;;;;1.25;0.90;;;17.90;99.90;;;;;;5050403;28;20736;-69
2023/05/07 07:30:38;;;;;;;0.60;0.50;;;18.00;99.90;;;;;;5039445;28;20230;-70
2023/05/07 07:33:06;;;;;;;0.60;0.50;;;18.00;99.90;;;;;;5037881;28;20672;-70
2023/05/07 07:35:34;;;;;;;0.65;0.60;;;18.00;99.90;;;;;;5039292;28;20212;-71
2023/05/07 07:38:02;;;;;;;0.60;0.45;;;18.00;99.90;;;;;;5031413;28;20252;-69
2023/05/07 07:40:30;;;;;;;0.70;0.60;;;18.00;99.90;;;;;;5040146;28;20265;-70
2023/05/07 07:43:01;;;;;;;0.60;0.50;;;18.10;99.90;;;;;;5043726;28;20608;-69
2023/05/07 07:45:29;;;;;;;0.85;0.85;;;18.10;99.90;;;;;;5045921;28;20587;-70
2023/05/07 07:47:56;;;;;;;0.65;0.60;;;18.00;99.90;;;;;;5043006;28;20226;-70
2023/05/07 07:50:24;;;;;;;0.60;0.43;;;17.90;99.90;;;;;;5045427;28;20210;-69
2023/05/07 07:52:58;;;;;;;0.60;0.60;;;17.90;99.90;;;;;;5046031;28;20241;-70
2023/05/07 07:55:27;;;;;;;0.60;0.40;;;17.70;99.90;;;;;;5042454;28;20282;-70
2023/05/07 07:57:54;;;;;;;0.60;0.50;;;17.70;99.90;;;;;;5044780;28;20303;-72
2023/05/07 08:00:24;;;;;;;0.60;0.45;;;17.70;99.90;;;;;;5042883;28;20307;-70
2023/05/07 08:02:52;;;;;;;1.00;0.90;;;17.70;99.90;;;;;;5040235;28;20254;-72
2023/05/07 08:05:20;;;;;;;0.60;0.50;;;17.80;99.90;;;;;;5047597;28;20208;-70
2023/05/07 08:07:51;;;;;;;0.60;0.55;;;17.90;99.90;;;;;;5044341;28;20247;-70
2023/05/07 08:10:21;;;;;;;0.90;0.68;;;17.90;99.90;;;;;;5043014;28;20301;-70
2023/05/07 08:12:49;;;;;;;0.93;0.60;;;17.80;99.90;;;;;;5042559;28;20218;-70
2023/05/07 08:15:17;;;;;;;0.60;0.50;;;17.90;99.90;;;;;;5043739;28;20208;-70
2023/05/07 08:17:47;;;;;;;0.70;0.68;;;18.00;99.90;;;;;;5042354;28;20299;-70
2023/05/07 08:20:15;;;;;;;0.60;0.57;;;18.00;99.90;;;;;;5044706;28;20628;-71
2023/05/07 08:22:43;;;;;;;0.60;0.45;;;18.10;99.90;;;;;;5049479;28;20204;-71
2023/05/07 08:25:11;;;;;;;0.68;0.55;;;18.20;99.90;;;;;;5046680;28;21271;-70
2023/05/07 08:27:38;;;;;;;0.73;0.70;;;18.30;99.90;;;;;;5046811;28;20237;-70
2023/05/07 08:30:08;;;;;;;0.93;0.85;;;18.30;99.90;;;;;;5047131;28;20287;-71
2023/05/07 08:32:36;;;;;;;0.60;0.55;;;18.40;99.90;;;;;;5045822;28;20243;-70
2023/05/07 08:35:06;;;;;;;0.60;0.50;;;18.40;99.90;;;;;;5045860;28;20221;-71
2023/05/07 08:37:34;;;;;;;0.60;0.50;;;18.50;99.90;;;;;;5044826;28;20231;-71
2023/05/07 08:40:02;;;;;;;1.10;0.88;;;18.70;99.90;;;;;;5046291;28;20516;-72
2023/05/07 08:42:32;;;;;;;0.60;0.50;;;18.60;99.90;;;;;;5043823;28;20283;-71
2023/05/07 08:45:02;;;;;;;0.70;0.70;;;18.60;99.90;;;;;;5048353;28;20226;-71
2023/05/07 08:47:35;;;;;;;0.70;0.70;;;18.70;99.90;;;;;;5046597;28;20230;-71
2023/05/07 08:50:05;;;;;;;0.70;0.60;;;18.70;99.90;;;;;;5047346;28;20231;-71
2023/05/07 08:52:33;;;;;;;1.20;1.00;;;18.90;99.90;;;;;;5052959;28;20291;-71
2023/05/07 08:55:03;;;;;;;0.60;0.50;;;19.00;99.90;;;;;;5046766;28;20345;-71
2023/05/07 08:57:30;;;;;;;0.90;0.73;;;19.10;99.90;;;;;;5041374;28;20231;-71
2023/05/07 08:59:59;;;;;;;0.75;0.70;;;19.20;99.90;;;;;;5046656;28;20251;-71
2023/05/07 09:02:27;;;;;;;0.68;0.63;;;19.20;99.90;;;;;;5046971;28;20200;-72
2023/05/07 09:04:55;;;;;;;0.70;0.57;;;19.30;99.90;;;;;;5045766;28;20243;-70
2023/05/07 09:07:25;;;;;;;0.90;0.70;;;19.40;99.90;;;;;;5048729;28;20898;-70
2023/05/07 09:09:54;;;;;;;0.73;0.63;;;19.60;99.90;;;;;;5046070;28;20638;-71
2023/05/07 09:12:22;;;;;;;0.60;0.40;;;20.00;99.90;;;;;;5046778;28;20208;-70
2023/05/07 09:14:50;;;;;;;0.60;0.40;;;20.50;99.90;;;;;;5047228;28;20295;-70
2023/05/07 09:17:18;;;;;;;1.10;0.80;;;20.90;99.90;;;;;;5045905;28;20224;-72
2023/05/07 09:19:47;;;;;;;0.60;0.50;;;20.80;99.90;;;;;;5042279;28;20207;-70
2023/05/07 09:22:15;;;;;;;0.60;0.50;;;20.60;99.90;;;;;;5042746;28;20209;-70
2023/05/07 09:24:48;;;;;;;1.15;0.93;;;20.60;99.90;;;;;;5040953;28;20203;-71
2023/05/07 09:27:18;;;;;;;0.70;0.70;;;20.90;99.90;;;;;;5040604;28;20253;-71
2023/05/07 09:29:46;;;;;;;1.20;1.10;;;20.90;99.90;;;;;;5040441;28;20611;-70
2023/05/07 09:32:15;;;;;;;2.65;0.70;;;21.00;99.90;;;;;;5042734;28;20290;-70
2023/05/07 09:34:43;;;;;;;0.60;0.50;;;21.30;99.90;;;;;;5044843;28;20690;-70
2023/05/07 09:37:14;;;;;;;0.63;0.40;;;21.40;99.90;;;;;;5048590;28;20327;-71
2023/05/07 09:39:44;;;;;;;0.60;0.50;;;21.40;99.90;;;;;;5051130;28;20589;-70
2023/05/07 09:42:14;;;;;;;0.60;0.57;;;21.50;99.90;;;;;;5044500;28;20206;-71
2023/05/07 09:44:43;;;;;;;0.60;0.40;;;21.70;99.90;;;;;;5035515;28;20742;-71
2023/05/07 09:47:19;;;;;;;0.70;0.60;;;21.80;99.90;;;;;;5044073;28;20307;-71
2023/05/07 09:49:48;;;;;;;0.70;0.57;;;22.00;99.90;;;;;;5034801;28;20227;-71
2023/05/07 09:52:17;;;;;;;0.60;0.50;;;22.00;99.90;;;;;;5067207;28;20250;-71
2023/05/07 09:54:49;;;;;;;0.70;0.68;;;22.00;99.90;;;;;;5057027;28;20238;-71
2023/05/07 09:57:19;;;;;;;0.60;0.60;;;22.10;99.90;;;;;;5040146;28;20236;-70
2023/05/07 09:59:49;;;;;;;0.73;0.70;;;21.90;99.90;;;;;;5048501;28;20652;-70
2023/05/07 10:02:20;;;;;;;0.73;0.73;;;21.90;99.90;;;;;;5043603;28;20236;-70
2023/05/07 10:04:49;;;;;;;1.33;1.23;;;21.80;99.90;;;;;;5035973;28;20201;-70
2023/05/07 10:07:18;;;;;;;0.80;0.55;;;21.70;99.90;;;;;;5044464;28;20264;-71
2023/05/07 10:09:47;;;;;;;0.80;0.80;;;21.70;99.90;;;;;;5031684;28;20305;-71
2023/05/07 10:12:17;;;;;;;0.60;0.60;;;21.70;99.90;;;;;;5034132;28;20212;-70
2023/05/07 10:14:46;;;;;;;0.75;0.75;;;21.80;99.90;;;;;;5039949;28;20660;-70
2023/05/07 10:17:16;;;;;;;0.60;0.47;;;21.60;99.90;;;;;;5047389;28;20312;-70
2023/05/07 10:19:45;;;;;;;0.85;0.65;;;21.70;99.90;;;;;;5035047;28;20263;-71
2023/05/07 10:22:14;;;;;;;1.38;1.15;;;21.90;99.90;;;;;;5059386;28;20205;-72
2023/05/07 10:24:44;;;;;;;0.65;0.55;;;22.20;99.90;;;;;;5059666;28;20287;-70
2023/05/07 10:27:16;;;;;;;0.80;0.75;;;22.40;99.90;;;;;;5036889;28;20312;-70
2023/05/07 10:29:54;;;;;;;0.70;0.70;;;23.00;99.90;;;;;;5039806;28;20249;-71
2023/05/07 10:32:36;;;;;;;0.80;0.80;;;23.20;99.90;;;;;;5032618;28;20334;-71
2023/05/07 10:35:09;;;;;;;1.23;0.63;;;23.40;99.90;;;;;;5051860;28;20209;-71
2023/05/07 10:37:37;;;;;;;0.80;0.68;;;23.70;99.90;;;;;;5032574;28;20234;-70
2023/05/07 10:40:07;;;;;;;0.80;0.80;;;23.90;99.90;;;;;;5031464;28;20203;-71
2023/05/07 10:42:36;;;;;;;0.90;0.50;;;23.80;99.90;;;;;;5038860;28;20249;-71
2023/05/07 10:45:16;;;;;;;0.70;0.60;;;24.10;99.90;;;;;;5037129;28;20236;-70
2023/05/07 10:48:06;;;;;;;0.70;0.57;;;24.20;99.90;;;;;;5034608;28;20734;-70
2023/05/07 10:51:21;;;;;;;1.00;1.00;;;23.90;99.90;;;;;;5041662;28;20663;-71
2023/05/07 10:53:49;;;;;;;0.82;0.82;;;23.90;99.90;;;;;;5046987;28;20206;-71
2023/05/07 10:56:28;;;;;;;0.60;0.60;;;23.80;99.90;;;;;;5031233;28;20223;-71
2023/05/07 10:59:31;;;;;;;0.60;0.57;;;23.70;99.90;;;;;;5031278;28;20233;-71
2023/05/07 11:02:02;;;;;;;0.82;0.77;;;23.40;99.90;;;;;;5038207;28;20206;-71
2023/05/07 11:04:34;;;;;;;1.27;0.95;;;23.30;99.90;;;;;;5032639;28;20199;-71
2023/05/07 11:07:27;;;;;;;0.70;0.55;;;23.20;99.90;;;;;;5031095;28;20250;-71
2023/05/07 11:10:01;;;;;;;0.70;0.60;;;23.30;99.90;;;;;;5032783;28;20218;-71
2023/05/07 11:12:52;;;;;;;0.90;0.80;;;23.10;99.90;;;;;;5032410;28;20207;-71
2023/05/07 11:15:38;;;;;;;0.70;0.50;;;23.20;99.90;;;;;;5030959;28;20212;-71
2023/05/07 11:18:07;;;;;;;0.80;0.70;;;23.40;99.90;;;;;;5030978;28;20212;-71
2023/05/07 11:20:49;;;;;;;1.15;1.05;;;23.40;99.90;;;;;;5041899;28;20206;-71
2023/05/07 11:23:58;;;;;;;0.73;0.63;;;23.30;99.90;;;;;;5070456;28;20230;-71
2023/05/07 11:26:28;;;;;;;0.75;0.70;;;23.70;99.90;;;;;;5039088;28;20226;-71
2023/05/07 11:28:56;;;;;;;1.10;1.00;;;23.90;99.90;;;;;;5050573;28;20692;-70
2023/05/07 11:31:29;;;;;;;0.60;0.50;;;24.00;99.90;;;;;;5041846;28;20692;-71
2023/05/07 11:33:58;;;;;;;0.82;0.73;;;23.90;99.90;;;;;;5035105;28;20227;-71
2023/05/07 11:36:31;;;;;;;0.90;0.80;;;23.90;99.90;;;;;;5041758;28;20231;-70
2023/05/07 11:38:59;;;;;;;1.10;1.00;;;24.00;99.90;;;;;;5050762;28;20221;-70
2023/05/07 11:41:35;;;;;;;0.93;0.75;;;23.70;99.90;;;;;;5040808;28;20206;-72
2023/05/07 11:44:04;;;;;;;0.70;0.60;;;23.70;99.90;;;;;;5039415;28;20203;-70
2023/05/07 11:46:34;;;;;;;0.70;0.63;;;23.60;99.90;;;;;;5039302;28;20717;-71
2023/05/07 11:49:02;;;;;;;0.60;0.57;;;23.50;99.90;;;;;;5045740;28;20226;-71
2023/05/07 11:51:31;;;;;;;0.70;0.70;;;23.70;99.90;;;;;;5043189;28;20236;-70
2023/05/07 11:53:59;;;;;;;0.60;0.45;;;23.70;99.90;;;;;;5052749;28;20284;-71
2023/05/07 11:56:27;;;;;;;0.80;0.80;;;23.80;99.90;;;;;;5054106;28;20782;-72
2023/05/07 11:58:55;;;;;;;0.98;0.80;;;24.00;99.90;;;;;;5046231;28;20633;-70
2023/05/07 12:01:23;;;;;;;1.63;1.52;;;24.00;99.90;;;;;;5053468;28;20966;-71
2023/05/07 12:03:52;;;;;;;0.80;0.65;;;24.00;99.90;;;;;;5045807;28;20198;-70
2023/05/07 12:06:20;;;;;;;0.80;0.70;;;24.10;99.90;;;;;;5054528;28;20593;-70
2023/05/07 12:08:48;;;;;;;0.80;0.70;;;24.40;99.90;;;;;;5043107;28;20297;-71
2023/05/07 12:11:22;;;;;;;0.70;0.70;;;24.80;99.90;;;;;;5040336;28;20212;-71
2023/05/07 12:13:50;;;;;;;0.85;0.85;;;24.90;99.90;;;;;;5053804;28;20278;-71
2023/05/07 12:16:19;;;;;;;0.70;0.70;;;25.00;99.90;;;;;;5047220;28;20276;-71
2023/05/07 12:18:47;;;;;;;1.20;1.10;;;25.00;99.90;;;;;;5053055;28;20618;-71
2023/05/07 12:21:17;;;;;;;0.63;0.63;;;25.00;99.90;;;;;;5057531;28;20725;-71
2023/05/07 12:23:45;;;;;;;0.63;0.60;;;25.30;99.90;;;;;;5053811;28;20236;-72
2023/05/07 12:26:13;;;;;;;0.85;0.80;;;25.30;99.90;;;;;;5053850;28;20262;-71
2023/05/07 12:28:41;;;;;;;0.68;0.60;;;25.30;99.90;;;;;;5043702;28;20297;-71
2023/05/07 12:31:10;;;;;;;0.75;0.75;;;24.90;99.90;;;;;;5042938;28;20739;-70
2023/05/07 12:33:38;;;;;;;0.80;0.70;;;24.80;99.90;;;;;;5045213;28;20298;-71
2023/05/07 12:36:08;;;;;;;0.60;0.50;;;24.90;99.90;;;;;;5027305;28;20266;-71
2023/05/07 12:38:39;;;;;;;2.03;0.73;;;25.00;99.90;;;;;;5073167;22;20326;-66
2023/05/07 12:41:09;;;;;;;1.13;1.02;;;25.50;99.90;;;;;;5052267;28;20210;-66
2023/05/07 12:43:37;;;;;;;1.55;0.93;;;25.60;99.90;;;;;;5050834;28;20610;-66
2023/05/07 12:46:06;;;;;;;0.70;0.55;;;25.70;99.90;;;;;;5053811;28;20286;-66
2023/05/07 12:48:36;;;;;;;0.60;0.57;;;25.70;99.90;;;;;;5053390;28;20235;-66
2023/05/07 12:51:06;;;;;;;0.70;0.60;;;26.00;99.90;;;;;;5044643;28;20667;-67
2023/05/07 12:53:40;;;;;;;1.13;1.02;;;26.50;99.90;;;;;;5039225;28;20237;-66
2023/05/07 12:56:09;;;;;;;0.80;0.60;;;27.20;98.90;;;;;;5053570;28;20299;-66
2023/05/07 12:58:37;;;;;;;0.88;0.63;;;27.60;99.00;;;;;;5053264;28;20224;-66